Time;durP1;ratioP1;P1;durP2;ratioP2;P2;SDS_P1;SDS_P2;PMS_P1;PMS_P2;Temp;Humidity;BMP_temperature;BMP_pressure;BME280_temperature;BME280_humidity;BME280_pressure;Samples;Min_cycle;Max_cycle;Signal;HPM_P1;HPM_P2
2022/03/10 00:01:09;;;;;;;31.67;22.83;;;7.70;96.90;;;;;;5016366;28;20187;-62
2022/03/10 00:03:35;;;;;;;33.13;22.90;;;7.60;97.30;;;;;;5016105;28;20530;-62
2022/03/10 00:06:01;;;;;;;31.30;22.63;;;7.50;98.00;;;;;;5016320;28;20184;-62
2022/03/10 00:08:26;;;;;;;29.05;21.42;;;7.50;97.90;;;;;;5016074;28;20183;-62
2022/03/10 00:10:52;;;;;;;31.55;22.73;;;7.40;98.30;;;;;;5014764;28;20246;-62
2022/03/10 00:13:18;;;;;;;32.10;23.05;;;7.40;98.00;;;;;;5015951;28;20177;-62
2022/03/10 00:15:43;;;;;;;31.25;22.02;;;7.40;98.50;;;;;;5015825;28;20563;-62
2022/03/10 00:18:09;;;;;;;33.40;23.50;;;7.30;98.40;;;;;;5014777;28;20172;-62
2022/03/10 00:20:35;;;;;;;31.60;22.20;;;7.30;98.50;;;;;;5015860;28;20200;-63
2022/03/10 00:23:00;;;;;;;32.83;22.48;;;7.30;98.80;;;;;;5015909;28;20633;-63
2022/03/10 00:25:26;;;;;;;31.35;22.60;;;7.20;99.30;;;;;;5015800;28;20173;-63
2022/03/10 00:27:52;;;;;;;31.60;22.33;;;7.10;99.60;;;;;;5015568;28;20180;-63
2022/03/10 00:30:18;;;;;;;31.95;23.00;;;7.10;99.40;;;;;;5014320;28;20223;-63
2022/03/10 00:32:45;;;;;;;34.35;22.83;;;7.10;99.30;;;;;;5016160;28;20617;-63
2022/03/10 00:35:15;;;;;;;35.88;23.88;;;7.10;99.20;;;;;;5016390;28;20577;-63
2022/03/10 00:37:40;;;;;;;33.40;22.63;;;7.10;99.30;;;;;;5016151;28;20683;-63
2022/03/10 00:40:07;;;;;;;32.38;22.13;;;7.00;99.40;;;;;;5016054;28;20211;-63
2022/03/10 00:42:37;;;;;;;32.33;23.38;;;7.00;99.50;;;;;;5015947;28;20695;-63
2022/03/10 00:45:03;;;;;;;32.75;22.63;;;7.00;99.90;;;;;;5015996;28;20222;-63
2022/03/10 00:47:28;;;;;;;33.08;22.92;;;6.90;99.90;;;;;;5016173;28;20176;-63
2022/03/10 00:49:54;;;;;;;31.95;22.65;;;6.80;99.90;;;;;;5015909;28;20678;-63
2022/03/10 00:52:20;;;;;;;31.00;22.40;;;6.60;99.90;;;;;;5015996;28;20534;-63
2022/03/10 00:54:45;;;;;;;31.65;22.38;;;6.70;99.90;;;;;;5015399;28;20226;-63
2022/03/10 00:57:11;;;;;;;30.88;21.55;;;6.70;99.90;;;;;;5014561;28;20181;-63
2022/03/10 00:59:37;;;;;;;32.55;22.25;;;6.70;99.90;;;;;;5015631;28;20218;-63
2022/03/10 01:02:02;;;;;;;32.47;21.60;;;6.70;99.90;;;;;;5015848;28;20194;-63
2022/03/10 01:04:28;;;;;;;32.55;22.13;;;6.60;99.90;;;;;;5015704;28;20180;-63
2022/03/10 01:06:54;;;;;;;32.88;22.48;;;6.60;99.90;;;;;;5015580;28;20184;-63
2022/03/10 01:09:19;;;;;;;30.38;22.10;;;6.60;99.90;;;;;;5015337;28;20219;-63
2022/03/10 01:11:45;;;;;;;31.55;21.98;;;6.70;99.90;;;;;;5015523;28;20203;-63
2022/03/10 01:14:10;;;;;;;30.30;22.05;;;6.70;99.90;;;;;;5015365;28;20200;-63
2022/03/10 01:16:36;;;;;;;30.17;21.85;;;6.70;99.90;;;;;;5015570;28;20246;-63
2022/03/10 01:19:02;;;;;;;32.15;22.25;;;6.60;99.90;;;;;;5015441;28;20199;-63
2022/03/10 01:21:28;;;;;;;28.77;22.08;;;6.60;99.90;;;;;;5015409;28;20246;-63
2022/03/10 01:23:53;;;;;;;31.45;22.08;;;6.60;99.90;;;;;;5015312;28;20183;-63
2022/03/10 01:26:19;;;;;;;30.67;22.90;;;6.60;99.90;;;;;;5015242;28;20188;-62
2022/03/10 01:28:45;;;;;;;30.80;22.33;;;6.60;99.90;;;;;;5015102;28;20275;-62
2022/03/10 01:31:10;;;;;;;30.25;21.73;;;6.60;99.90;;;;;;5015259;28;20262;-62
2022/03/10 01:33:36;;;;;;;30.70;20.67;;;6.60;99.90;;;;;;5015034;28;20706;-62
2022/03/10 01:36:02;;;;;;;30.45;21.88;;;6.60;99.90;;;;;;5015155;28;20179;-62
2022/03/10 01:38:27;;;;;;;30.95;21.65;;;6.70;99.90;;;;;;5013840;28;20181;-62
2022/03/10 01:40:53;;;;;;;29.77;21.65;;;6.70;99.90;;;;;;5015093;28;20185;-62
2022/03/10 01:43:19;;;;;;;28.65;21.38;;;6.70;99.90;;;;;;5013944;28;20229;-62
2022/03/10 01:45:44;;;;;;;29.70;21.42;;;6.60;99.90;;;;;;5015165;28;20233;-63
2022/03/10 01:48:10;;;;;;;30.55;20.58;;;6.60;99.90;;;;;;5013790;28;20653;-63
2022/03/10 01:50:36;;;;;;;28.95;21.50;;;6.50;99.90;;;;;;5014781;28;20355;-63
2022/03/10 01:53:02;;;;;;;30.45;22.02;;;6.50;99.90;;;;;;5014290;28;20548;-63
2022/03/10 01:55:28;;;;;;;26.35;19.70;;;6.50;99.90;;;;;;5014705;28;20180;-63
2022/03/10 01:57:54;;;;;;;29.13;20.85;;;6.50;99.90;;;;;;5013372;28;20656;-63
2022/03/10 02:00:19;;;;;;;27.55;20.02;;;6.60;99.90;;;;;;5014881;28;20185;-63
2022/03/10 02:02:45;;;;;;;30.05;21.63;;;6.60;99.90;;;;;;5014674;28;20243;-63
2022/03/10 02:05:11;;;;;;;28.10;20.23;;;6.60;99.90;;;;;;5014639;28;20183;-63
2022/03/10 02:10:28;;;;;;;28.98;20.20;;;6.50;99.90;;;;;;5014642;28;20234;-63
2022/03/10 02:12:55;;;;;;;26.85;19.48;;;6.50;99.90;;;;;;5014578;28;20231;-63
2022/03/10 02:18:08;;;;;;;27.75;20.27;;;6.40;99.90;;;;;;5014320;28;20187;-63
2022/03/10 02:20:35;;;;;;;27.45;20.10;;;6.30;99.90;;;;;;5014224;28;20204;-63
2022/03/10 02:23:02;;;;;;;30.45;20.98;;;6.40;99.90;;;;;;5012897;28;20183;-63
2022/03/10 02:25:28;;;;;;;29.50;20.55;;;6.30;99.90;;;;;;5014332;28;20177;-63
2022/03/10 02:27:55;;;;;;;28.35;20.67;;;6.30;99.90;;;;;;5014323;28;20198;-63
2022/03/10 02:30:23;;;;;;;28.88;20.75;;;6.20;99.90;;;;;;5014118;28;20216;-63
2022/03/10 02:32:49;;;;;;;27.85;20.27;;;6.20;99.90;;;;;;5014046;28;20724;-63
2022/03/10 02:35:15;;;;;;;27.42;20.65;;;6.10;99.90;;;;;;5013883;28;20184;-63
2022/03/10 02:37:42;;;;;;;29.55;21.35;;;6.00;99.90;;;;;;5014036;28;20187;-63
2022/03/10 02:40:08;;;;;;;28.98;19.73;;;6.00;99.90;;;;;;5013866;28;20189;-63
2022/03/10 02:42:34;;;;;;;30.13;20.20;;;6.00;99.90;;;;;;5013939;28;20318;-63
2022/03/10 02:45:01;;;;;;;28.37;19.43;;;5.90;99.90;;;;;;5013882;28;20592;-63
2022/03/10 02:47:27;;;;;;;28.05;19.42;;;5.80;99.90;;;;;;5013946;28;20195;-63
2022/03/10 02:49:53;;;;;;;26.37;19.23;;;5.80;99.90;;;;;;5013636;28;20674;-63
2022/03/10 02:52:18;;;;;;;26.75;20.60;;;5.80;99.90;;;;;;5013877;28;20180;-63
2022/03/10 02:54:45;;;;;;;26.80;19.85;;;5.90;99.90;;;;;;5013843;28;20179;-63
2022/03/10 02:57:12;;;;;;;28.88;20.65;;;6.00;99.90;;;;;;5013821;28;20564;-63
2022/03/10 02:59:37;;;;;;;28.48;20.40;;;6.00;99.90;;;;;;5013704;28;20180;-63
2022/03/10 03:02:04;;;;;;;27.60;19.77;;;6.00;99.90;;;;;;5013714;28;20331;-63
2022/03/10 03:04:29;;;;;;;29.48;20.30;;;6.00;99.90;;;;;;5013476;28;20190;-63
2022/03/10 03:06:55;;;;;;;24.45;19.17;;;5.80;99.90;;;;;;5012488;28;20611;-63
2022/03/10 03:09:21;;;;;;;26.55;18.90;;;5.80;99.90;;;;;;5013268;28;20278;-63
2022/03/10 03:11:47;;;;;;;27.10;19.65;;;5.70;99.90;;;;;;5013656;28;20258;-63
2022/03/10 03:14:13;;;;;;;30.10;19.27;;;5.70;99.90;;;;;;5013522;28;20172;-63
2022/03/10 03:16:39;;;;;;;28.33;19.55;;;5.70;99.90;;;;;;5013424;28;20180;-61
2022/03/10 03:19:05;;;;;;;26.45;19.63;;;5.70;99.90;;;;;;5013118;28;20274;-64
2022/03/10 03:21:31;;;;;;;26.58;20.10;;;5.60;99.90;;;;;;5013575;28;20256;-62
2022/03/10 03:23:57;;;;;;;29.85;20.27;;;5.70;99.90;;;;;;5013481;28;20183;-62
2022/03/10 03:26:22;;;;;;;27.15;19.48;;;5.70;99.90;;;;;;5013597;28;20631;-63
2022/03/10 03:28:48;;;;;;;27.73;19.45;;;5.80;99.90;;;;;;5013445;28;20266;-62
2022/03/10 03:31:14;;;;;;;27.65;20.35;;;5.70;99.90;;;;;;5013115;28;20219;-63
2022/03/10 03:33:39;;;;;;;29.15;19.77;;;5.70;99.90;;;;;;5012070;28;20184;-63
2022/03/10 03:36:05;;;;;;;29.40;20.23;;;5.70;99.90;;;;;;5013393;28;20657;-63
2022/03/10 03:38:32;;;;;;;27.10;19.92;;;5.70;99.90;;;;;;5013339;28;20183;-63
2022/03/10 03:40:59;;;;;;;26.40;19.73;;;5.80;99.90;;;;;;5013318;28;20177;-62
2022/03/10 03:43:25;;;;;;;29.52;21.42;;;5.80;99.90;;;;;;5013300;28;20175;-63
2022/03/10 03:45:50;;;;;;;26.77;19.23;;;5.90;99.90;;;;;;5013303;28;20180;-63
2022/03/10 03:48:16;;;;;;;27.83;20.83;;;5.80;99.90;;;;;;5013093;28;20264;-63
2022/03/10 03:50:42;;;;;;;27.65;20.30;;;5.80;99.90;;;;;;5013310;28;20219;-63
2022/03/10 03:53:07;;;;;;;29.25;21.27;;;5.70;99.90;;;;;;5013238;28;20242;-62
2022/03/10 03:55:33;;;;;;;26.77;20.00;;;5.70;99.90;;;;;;5013160;28;20186;-63
2022/03/10 03:57:58;;;;;;;28.27;21.15;;;5.80;99.90;;;;;;5013116;28;20275;-63
2022/03/10 04:00:24;;;;;;;27.80;20.57;;;5.80;99.90;;;;;;5012977;28;20194;-63
2022/03/10 04:02:50;;;;;;;30.58;21.27;;;5.80;99.90;;;;;;5012919;28;20568;-63
2022/03/10 04:05:16;;;;;;;28.83;19.88;;;5.80;99.90;;;;;;5012937;28;20192;-62
2022/03/10 04:07:41;;;;;;;25.23;20.45;;;5.70;99.90;;;;;;5013095;28;20184;-63
2022/03/10 04:10:08;;;;;;;26.38;20.60;;;5.80;99.90;;;;;;5012913;28;20223;-63
2022/03/10 04:12:34;;;;;;;27.73;20.63;;;5.80;99.90;;;;;;5012983;28;20649;-63
2022/03/10 04:15:01;;;;;;;29.33;20.35;;;5.80;99.90;;;;;;5012858;28;20237;-63
2022/03/10 04:17:27;;;;;;;29.27;20.53;;;5.90;99.90;;;;;;5012761;28;20208;-63
2022/03/10 04:19:53;;;;;;;29.35;21.00;;;5.90;99.90;;;;;;5013002;28;20243;-62
2022/03/10 04:22:19;;;;;;;27.67;19.95;;;5.90;99.90;;;;;;5012973;28;20184;-63
2022/03/10 04:24:45;;;;;;;27.60;19.77;;;5.80;99.90;;;;;;5012899;28;20330;-63
2022/03/10 04:27:11;;;;;;;27.00;19.63;;;5.80;99.90;;;;;;5012832;28;20266;-63
2022/03/10 04:29:37;;;;;;;26.90;19.67;;;5.80;99.90;;;;;;5013086;28;20278;-63
2022/03/10 04:32:02;;;;;;;28.50;20.80;;;5.70;99.90;;;;;;5016282;28;20593;-63
2022/03/10 04:34:28;;;;;;;24.77;18.80;;;5.70;99.90;;;;;;5016372;28;20172;-62
2022/03/10 04:36:54;;;;;;;27.77;19.50;;;5.70;99.90;;;;;;5016399;28;20231;-62
2022/03/10 04:39:19;;;;;;;28.23;20.73;;;5.70;99.90;;;;;;5016181;28;20187;-62
2022/03/10 04:41:45;;;;;;;27.55;20.42;;;5.70;99.90;;;;;;5016195;28;20183;-62
2022/03/10 04:44:10;;;;;;;29.10;20.80;;;5.80;99.90;;;;;;5016160;28;20176;-62
2022/03/10 04:46:37;;;;;;;24.83;19.58;;;5.70;99.90;;;;;;5015901;28;20183;-63
2022/03/10 04:49:03;;;;;;;28.37;20.80;;;5.80;99.90;;;;;;5016191;28;20194;-64
2022/03/10 04:51:29;;;;;;;28.98;20.60;;;5.70;99.90;;;;;;5014857;28;20220;-62
2022/03/10 04:53:55;;;;;;;29.20;21.50;;;5.80;99.90;;;;;;5015964;28;20232;-63
2022/03/10 04:56:20;;;;;;;28.27;20.88;;;5.70;99.90;;;;;;5015962;28;20579;-62
2022/03/10 04:58:46;;;;;;;30.80;21.17;;;5.70;99.90;;;;;;5015894;28;20187;-62
2022/03/10 05:01:12;;;;;;;28.70;19.95;;;5.70;99.90;;;;;;5015717;28;20545;-62
2022/03/10 05:03:39;;;;;;;25.77;19.95;;;5.60;99.90;;;;;;5015617;28;20182;-63
2022/03/10 05:06:04;;;;;;;28.27;20.57;;;5.70;99.90;;;;;;5016038;28;20641;-63
2022/03/10 05:08:30;;;;;;;27.33;20.73;;;5.60;99.90;;;;;;5015627;28;20190;-63
2022/03/10 05:10:56;;;;;;;29.77;21.00;;;5.70;99.90;;;;;;5015531;28;20236;-63
2022/03/10 05:13:22;;;;;;;27.50;21.07;;;5.70;99.90;;;;;;5015583;28;20195;-63
2022/03/10 05:15:48;;;;;;;28.17;21.13;;;5.60;99.90;;;;;;5015408;28;20254;-63
2022/03/10 05:18:14;;;;;;;27.70;20.73;;;5.60;99.90;;;;;;5015700;28;20175;-63
2022/03/10 05:20:39;;;;;;;29.02;22.70;;;5.60;99.90;;;;;;5015363;28;20613;-63
2022/03/10 05:23:06;;;;;;;28.45;21.92;;;5.60;99.90;;;;;;5015526;28;20187;-62
2022/03/10 05:25:34;;;;;;;28.98;21.80;;;5.60;99.90;;;;;;5015424;28;20287;-63
2022/03/10 05:27:59;;;;;;;31.83;22.00;;;5.50;99.90;;;;;;5015235;28;20179;-63
2022/03/10 05:30:25;;;;;;;31.38;22.77;;;5.50;99.90;;;;;;5015018;28;20573;-63
2022/03/10 05:32:52;;;;;;;29.80;21.27;;;5.40;99.90;;;;;;5015445;28;20283;-63
2022/03/10 05:35:18;;;;;;;30.60;22.10;;;5.30;99.90;;;;;;5014150;28;20175;-63
2022/03/10 05:37:45;;;;;;;31.87;22.57;;;5.30;99.90;;;;;;5013868;28;20188;-63
2022/03/10 05:40:13;;;;;;;31.13;22.03;;;5.20;99.90;;;;;;5015061;28;20203;-63
2022/03/10 05:42:40;;;;;;;30.50;21.92;;;5.10;99.90;;;;;;5014858;28;20180;-63
2022/03/10 05:45:07;;;;;;;30.30;22.23;;;5.10;99.90;;;;;;5014996;28;20179;-63
2022/03/10 05:47:34;;;;;;;32.17;22.60;;;5.10;99.90;;;;;;5015023;28;20251;-63
2022/03/10 05:50:00;;;;;;;32.03;22.43;;;5.00;99.90;;;;;;5014920;28;20237;-63
2022/03/10 05:52:26;;;;;;;33.60;22.90;;;5.10;99.90;;;;;;5014923;28;20184;-63
2022/03/10 05:54:51;;;;;;;33.10;22.80;;;5.10;99.90;;;;;;5014773;28;20703;-63
2022/03/10 05:57:17;;;;;;;35.33;23.90;;;5.10;99.90;;;;;;5014675;28;20187;-62
2022/03/10 05:59:43;;;;;;;32.47;22.53;;;5.10;99.90;;;;;;5014709;28;20187;-62
2022/03/10 06:02:08;;;;;;;30.80;22.53;;;4.90;99.90;;;;;;5013555;28;20179;-59
2022/03/10 06:04:34;;;;;;;30.83;21.63;;;5.00;99.90;;;;;;5014591;28;20186;-62
2022/03/10 06:07:00;;;;;;;32.27;21.90;;;4.90;99.90;;;;;;5014291;28;20190;-62
2022/03/10 06:09:26;;;;;;;35.57;23.50;;;5.00;99.90;;;;;;5012802;28;20199;-63
2022/03/10 06:11:51;;;;;;;37.87;24.20;;;4.90;99.90;;;;;;5014395;28;20227;-62
2022/03/10 06:14:18;;;;;;;39.03;26.13;;;5.00;99.90;;;;;;5014379;28;20172;-63
2022/03/10 06:16:44;;;;;;;35.90;24.60;;;5.00;99.90;;;;;;5014455;28;20184;-62
2022/03/10 06:19:10;;;;;;;37.47;24.63;;;5.00;99.90;;;;;;5014434;28;20214;-62
2022/03/10 06:21:37;;;;;;;35.63;23.53;;;5.00;99.90;;;;;;5014449;28;20601;-63
2022/03/10 06:24:03;;;;;;;31.33;21.53;;;5.00;99.90;;;;;;5014243;28;20191;-62
2022/03/10 06:26:28;;;;;;;34.10;22.37;;;5.00;99.90;;;;;;5014142;28;20184;-62
2022/03/10 06:28:54;;;;;;;31.73;22.23;;;5.00;99.90;;;;;;5013119;28;20334;-64
2022/03/10 06:31:20;;;;;;;31.70;22.50;;;4.90;99.90;;;;;;5014067;28;20600;-63
2022/03/10 06:33:45;;;;;;;31.33;21.87;;;4.90;99.90;;;;;;5014242;28;20187;-63
2022/03/10 06:36:12;;;;;;;32.50;22.17;;;4.90;99.90;;;;;;5014200;28;20176;-63
2022/03/10 06:38:38;;;;;;;30.13;21.33;;;5.00;99.90;;;;;;5014095;28;20179;-62
2022/03/10 06:41:04;;;;;;;32.90;22.87;;;5.00;99.90;;;;;;5013830;28;20536;-62
2022/03/10 06:43:30;;;;;;;35.07;23.53;;;5.00;99.90;;;;;;5014113;28;20183;-62
2022/03/10 06:45:55;;;;;;;32.17;22.80;;;5.10;99.90;;;;;;5013927;28;20235;-62
2022/03/10 06:48:21;;;;;;;32.73;23.30;;;5.10;99.90;;;;;;5013968;28;20186;-62
2022/03/10 06:50:46;;;;;;;28.93;22.07;;;5.10;99.90;;;;;;5013813;28;20669;-63
2022/03/10 06:53:13;;;;;;;36.50;22.63;;;5.10;99.90;;;;;;5013306;28;20596;-63
2022/03/10 06:55:38;;;;;;;32.97;22.93;;;5.20;99.90;;;;;;5013774;28;20661;-62
2022/03/10 06:58:05;;;;;;;31.80;22.00;;;5.30;99.90;;;;;;5013714;28;20271;-62
2022/03/10 07:00:31;;;;;;;31.60;21.97;;;5.40;99.90;;;;;;5013837;28;20183;-63
2022/03/10 07:02:56;;;;;;;31.57;22.00;;;5.50;99.90;;;;;;5013766;28;20176;-63
2022/03/10 07:05:23;;;;;;;31.33;21.80;;;5.50;99.90;;;;;;5013679;28;20188;-63
2022/03/10 07:07:49;;;;;;;28.47;21.57;;;5.50;99.90;;;;;;5013617;28;20188;-62
2022/03/10 07:10:15;;;;;;;28.88;21.45;;;5.50;99.90;;;;;;5013708;28;20676;-63
2022/03/10 07:12:42;;;;;;;30.63;21.33;;;5.60;99.90;;;;;;5013769;28;20225;-63
2022/03/10 07:15:10;;;;;;;28.67;21.90;;;5.80;99.90;;;;;;5013703;28;20175;-62
2022/03/10 07:17:36;;;;;;;26.57;20.93;;;5.90;99.90;;;;;;5013668;28;20187;-63
2022/03/10 07:20:01;;;;;;;30.30;21.83;;;5.90;99.90;;;;;;5013524;28;20258;-63
2022/03/10 07:22:27;;;;;;;30.63;22.60;;;6.00;99.90;;;;;;5013469;28;20211;-62
2022/03/10 07:24:53;;;;;;;28.48;21.38;;;6.10;99.90;;;;;;5013233;28;20595;-62
2022/03/10 07:27:19;;;;;;;29.15;20.90;;;6.20;99.90;;;;;;5013532;28;20183;-63
2022/03/10 07:29:44;;;;;;;29.15;21.77;;;6.20;99.90;;;;;;5013386;28;20188;-63
2022/03/10 07:32:10;;;;;;;30.50;20.70;;;6.30;99.90;;;;;;5013589;28;20491;-63
2022/03/10 07:34:36;;;;;;;29.60;21.67;;;6.50;99.90;;;;;;5013421;28;20182;-63
2022/03/10 07:37:01;;;;;;;26.58;21.25;;;6.50;99.90;;;;;;5013305;28;20256;-62
2022/03/10 07:39:28;;;;;;;28.00;21.42;;;6.50;99.90;;;;;;5013136;28;20184;-63
2022/03/10 07:41:53;;;;;;;28.10;21.92;;;6.70;99.90;;;;;;5013459;28;20180;-63
2022/03/10 07:44:19;;;;;;;29.33;21.70;;;6.70;99.90;;;;;;5013470;28;20617;-63
2022/03/10 07:46:45;;;;;;;28.30;20.40;;;6.80;99.90;;;;;;5013220;28;20183;-63
2022/03/10 07:49:11;;;;;;;29.48;21.55;;;6.80;99.90;;;;;;5013291;28;20540;-63
2022/03/10 07:51:42;;;;;;;31.70;21.33;;;7.00;99.90;;;;;;5013219;28;20285;-63
2022/03/10 07:54:08;;;;;;;27.00;21.77;;;7.10;99.90;;;;;;5013022;28;20652;-63
2022/03/10 07:56:34;;;;;;;29.40;21.58;;;7.20;99.90;;;;;;5013109;28;20310;-63
2022/03/10 07:58:59;;;;;;;29.67;21.25;;;7.30;99.90;;;;;;5013270;28;20266;-63
2022/03/10 08:01:25;;;;;;;28.55;20.42;;;7.30;99.90;;;;;;5013141;28;20319;-62
2022/03/10 08:03:51;;;;;;;30.05;21.42;;;7.50;99.90;;;;;;5013081;28;20203;-63
2022/03/10 08:06:16;;;;;;;26.95;22.30;;;7.70;99.90;;;;;;5016125;28;20191;-63
2022/03/10 08:08:43;;;;;;;29.40;20.88;;;7.80;99.90;;;;;;5016664;28;20180;-65
2022/03/10 08:11:10;;;;;;;27.83;21.63;;;7.90;99.90;;;;;;5017023;28;20204;-63
2022/03/10 08:13:36;;;;;;;27.90;21.02;;;8.00;99.90;;;;;;5015628;28;20192;-63
2022/03/10 08:16:02;;;;;;;29.27;21.13;;;8.00;99.90;;;;;;5016682;28;20649;-62
2022/03/10 08:18:28;;;;;;;26.63;19.67;;;8.10;99.90;;;;;;5016706;28;20181;-62
2022/03/10 08:20:59;;;;;;;25.90;20.10;;;8.20;99.90;;;;;;5016591;28;20653;-63
2022/03/10 08:23:26;;;;;;;26.83;20.92;;;8.30;99.90;;;;;;5016510;28;20173;-62
2022/03/10 08:25:51;;;;;;;24.67;19.90;;;8.60;99.90;;;;;;5016600;28;20686;-62
2022/03/10 08:28:17;;;;;;;25.38;20.75;;;8.70;99.90;;;;;;5015174;28;20286;-63
2022/03/10 08:30:43;;;;;;;25.35;20.20;;;8.80;99.90;;;;;;5016352;28;20200;-63
2022/03/10 08:33:08;;;;;;;26.27;20.73;;;9.00;99.90;;;;;;5016398;28;20782;-61
2022/03/10 08:35:34;;;;;;;25.00;19.92;;;9.10;99.90;;;;;;5016290;28;20177;-63
2022/03/10 08:38:00;;;;;;;22.92;19.23;;;9.20;99.90;;;;;;5016097;28;20176;-64
2022/03/10 08:40:26;;;;;;;23.77;19.88;;;9.40;99.90;;;;;;5016035;28;20181;-63
2022/03/10 08:42:52;;;;;;;23.80;19.10;;;9.40;99.90;;;;;;5016440;28;20518;-63
2022/03/10 08:45:19;;;;;;;25.25;20.17;;;9.50;99.90;;;;;;5016140;28;20168;-63
2022/03/10 08:47:45;;;;;;;25.08;19.65;;;9.60;99.90;;;;;;5016141;28;20554;-63
2022/03/10 08:50:11;;;;;;;23.70;19.58;;;9.70;99.90;;;;;;5016023;28;20258;-63
2022/03/10 08:52:38;;;;;;;23.65;18.45;;;9.80;99.90;;;;;;5015774;28;20181;-62
2022/03/10 08:55:05;;;;;;;23.50;19.05;;;10.10;99.90;;;;;;5016112;28;20179;-62
2022/03/10 08:57:32;;;;;;;20.92;17.35;;;10.20;99.90;;;;;;5016082;28;20206;-62
2022/03/10 08:59:58;;;;;;;22.17;18.35;;;10.30;99.90;;;;;;5016080;28;20177;-62
2022/03/10 09:02:24;;;;;;;23.38;18.13;;;10.40;99.90;;;;;;5015789;28;20179;-62
2022/03/10 09:04:50;;;;;;;26.98;18.73;;;10.60;99.90;;;;;;5015613;28;20540;-62
2022/03/10 09:07:16;;;;;;;24.75;18.30;;;10.70;99.90;;;;;;5015930;28;20183;-62
2022/03/10 09:09:41;;;;;;;25.42;19.40;;;10.80;99.90;;;;;;5015441;28;20576;-62
2022/03/10 09:12:07;;;;;;;22.75;18.48;;;10.90;99.90;;;;;;5015740;28;20228;-63
2022/03/10 09:14:33;;;;;;;24.65;18.13;;;11.00;99.90;;;;;;5015563;28;20539;-62
2022/03/10 09:16:59;;;;;;;29.02;19.17;;;11.10;99.90;;;;;;5014154;28;20172;-62
2022/03/10 09:19:24;;;;;;;24.30;18.63;;;11.20;99.90;;;;;;5015408;28;20173;-62
2022/03/10 09:21:51;;;;;;;27.45;18.88;;;11.30;99.90;;;;;;5015401;28;20189;-62
2022/03/10 09:24:17;;;;;;;26.83;18.17;;;11.30;99.90;;;;;;5015588;28;20173;-62
2022/03/10 09:26:42;;;;;;;23.75;18.02;;;11.50;99.90;;;;;;5015400;28;20184;-62
2022/03/10 09:29:08;;;;;;;29.00;18.75;;;11.50;99.90;;;;;;5015461;28;20176;-62
2022/03/10 09:31:33;;;;;;;25.98;18.63;;;11.60;99.90;;;;;;5015153;28;20215;-62
2022/03/10 09:33:59;;;;;;;25.38;19.30;;;11.60;99.90;;;;;;5015092;28;20181;-62
2022/03/10 09:36:28;;;;;;;25.38;18.15;;;11.70;99.90;;;;;;5015600;28;20649;-62
2022/03/10 09:38:54;;;;;;;28.38;19.52;;;11.60;99.90;;;;;;5015049;28;20196;-62
2022/03/10 09:41:20;;;;;;;24.58;18.77;;;11.80;99.90;;;;;;5014902;28;20534;-62
2022/03/10 09:43:47;;;;;;;26.70;18.70;;;11.90;99.90;;;;;;5013875;28;20169;-62
2022/03/10 09:46:13;;;;;;;27.00;18.67;;;12.20;99.90;;;;;;5014959;28;20177;-62
2022/03/10 09:48:40;;;;;;;27.77;18.42;;;12.20;99.90;;;;;;5014838;28;20279;-62
2022/03/10 09:51:06;;;;;;;26.17;18.67;;;12.20;99.70;;;;;;5015038;28;20216;-62
2022/03/10 09:53:34;;;;;;;26.55;17.95;;;12.30;99.90;;;;;;5015065;28;20260;-62
2022/03/10 09:56:02;;;;;;;26.95;17.77;;;12.40;99.70;;;;;;5014907;28;20206;-62
2022/03/10 09:58:28;;;;;;;25.27;18.02;;;12.60;99.60;;;;;;5013605;28;20173;-62
2022/03/10 10:01:07;;;;;;;26.80;17.67;;;12.60;99.30;;;;;;5014787;28;20185;-62
2022/03/10 10:03:33;;;;;;;24.80;18.20;;;12.70;99.10;;;;;;5014825;28;20176;-62
2022/03/10 10:06:00;;;;;;;23.80;18.23;;;12.60;98.90;;;;;;5014782;28;20247;-62
2022/03/10 10:08:27;;;;;;;24.48;17.70;;;12.70;99.00;;;;;;5014579;28;20260;-62
2022/03/10 10:10:55;;;;;;;25.17;18.75;;;12.80;99.30;;;;;;5014411;28;20307;-62
2022/03/10 10:13:40;;;;;;;24.60;17.05;;;12.90;98.40;;;;;;5014506;28;20210;-62
2022/03/10 10:16:13;;;;;;;24.27;16.77;;;13.00;98.80;;;;;;5014743;28;20165;-62
2022/03/10 10:18:41;;;;;;;24.35;16.95;;;13.10;98.70;;;;;;5014643;28;20168;-62
2022/03/10 10:21:08;;;;;;;24.38;18.38;;;13.30;98.60;;;;;;5014351;28;20172;-62
2022/03/10 10:23:39;;;;;;;22.83;16.77;;;13.50;98.60;;;;;;5014386;28;20176;-62
2022/03/10 10:26:06;;;;;;;23.98;16.98;;;13.40;97.60;;;;;;5014250;28;20184;-62
2022/03/10 10:28:37;;;;;;;24.70;16.95;;;13.50;97.00;;;;;;5013429;28;20169;-62
2022/03/10 10:31:05;;;;;;;19.95;15.40;;;13.60;96.70;;;;;;5014199;28;20216;-62
2022/03/10 10:33:35;;;;;;;20.95;16.38;;;13.60;96.80;;;;;;5014231;28;20646;-62
2022/03/10 10:36:31;;;;;;;21.75;15.35;;;13.60;97.30;;;;;;5012882;28;20239;-62
2022/03/10 10:39:06;;;;;;;21.08;15.75;;;13.70;96.90;;;;;;5009466;28;20196;-62
2022/03/10 10:41:32;;;;;;;22.02;15.70;;;13.80;97.00;;;;;;5014154;28;20180;-62
2022/03/10 10:44:04;;;;;;;22.33;15.80;;;13.80;96.80;;;;;;5014102;28;20184;-62
2022/03/10 10:46:41;;;;;;;21.27;15.27;;;14.00;96.50;;;;;;5012774;28;20173;-62
2022/03/10 10:49:15;;;;;;;19.20;15.40;;;14.00;96.20;;;;;;5013906;28;20172;-63
2022/03/10 10:51:45;;;;;;;20.05;15.05;;;14.10;96.30;;;;;;5013975;28;20208;-62
2022/03/10 10:54:31;;;;;;;18.75;13.57;;;14.10;96.00;;;;;;5013939;28;20184;-62
2022/03/10 10:57:09;;;;;;;19.88;14.90;;;14.20;96.40;;;;;;5013847;28;20172;-62
2022/03/10 10:59:40;;;;;;;22.95;16.27;;;14.30;95.90;;;;;;5013644;28;20184;-63
2022/03/10 11:02:22;;;;;;;20.08;14.98;;;14.30;95.10;;;;;;5013871;28;20546;-62
2022/03/10 11:04:49;;;;;;;19.48;14.95;;;14.30;95.00;;;;;;5012495;28;20180;-62
2022/03/10 11:07:16;;;;;;;19.52;13.93;;;14.40;95.20;;;;;;5013607;28;20713;-62
2022/03/10 11:09:43;;;;;;;18.27;13.90;;;14.40;95.60;;;;;;5013636;28;20634;-62
2022/03/10 11:12:13;;;;;;;20.30;14.82;;;14.60;96.00;;;;;;5013466;28;20172;-62
2022/03/10 11:14:39;;;;;;;19.85;14.35;;;14.80;94.90;;;;;;5013642;28;20183;-62
2022/03/10 11:17:05;;;;;;;21.27;14.48;;;14.70;93.80;;;;;;5013566;28;20511;-62
2022/03/10 11:19:35;;;;;;;18.45;14.95;;;14.80;94.30;;;;;;5013453;28;20191;-62
2022/03/10 11:22:13;;;;;;;19.15;14.55;;;14.90;92.70;;;;;;5013504;28;20188;-62
2022/03/10 11:25:00;;;;;;;18.65;14.82;;;14.90;93.10;;;;;;5013358;28;20172;-62
2022/03/10 11:27:52;;;;;;;19.10;14.20;;;14.80;92.20;;;;;;5013520;28;20173;-62
2022/03/10 11:30:28;;;;;;;20.65;14.93;;;14.90;93.50;;;;;;5013450;28;20193;-62
2022/03/10 11:33:12;;;;;;;20.02;15.07;;;14.90;92.80;;;;;;5013282;28;20183;-62
2022/03/10 11:35:42;;;;;;;20.33;14.23;;;15.00;92.60;;;;;;5013480;28;20176;-62
2022/03/10 11:38:09;;;;;;;19.77;14.18;;;15.20;92.60;;;;;;5013308;28;20180;-62
2022/03/10 11:41:00;;;;;;;18.60;13.38;;;15.20;91.40;;;;;;5015779;28;20181;-62
2022/03/10 11:43:25;;;;;;;20.70;14.85;;;15.20;91.70;;;;;;5017187;28;20215;-62
2022/03/10 11:46:11;;;;;;;19.60;14.30;;;15.40;90.90;;;;;;5017376;28;20638;-62
2022/03/10 11:48:37;;;;;;;22.63;14.23;;;15.40;90.20;;;;;;5017136;28;20172;-62
2022/03/10 11:51:09;;;;;;;19.75;14.50;;;15.40;90.70;;;;;;5017125;28;20224;-62
2022/03/10 11:54:05;;;;;;;18.65;13.90;;;15.50;90.90;;;;;;5017027;28;20585;-64
2022/03/10 11:56:57;;;;;;;19.25;13.88;;;15.50;87.30;;;;;;5012619;28;20191;-63
2022/03/10 11:59:47;;;;;;;20.05;13.23;;;15.60;88.20;;;;;;5017168;28;20169;-62
2022/03/10 12:02:39;;;;;;;17.35;13.48;;;15.70;88.50;;;;;;5017295;28;20184;-62
2022/03/10 12:05:06;;;;;;;16.13;11.73;;;15.90;89.40;;;;;;5016959;28;20215;-62
2022/03/10 12:07:32;;;;;;;18.65;11.18;;;16.00;83.70;;;;;;5016901;28;20654;-62
2022/03/10 12:10:08;;;;;;;14.68;11.80;;;16.10;84.20;;;;;;5016716;28;20212;-62
2022/03/10 12:12:47;;;;;;;17.50;12.25;;;16.20;83.80;;;;;;5016649;28;20180;-62
2022/03/10 12:15:35;;;;;;;15.35;11.50;;;16.30;83.40;;;;;;5016930;28;20707;-63
2022/03/10 12:18:13;;;;;;;16.30;11.68;;;16.30;83.50;;;;;;5013391;28;20599;-62
2022/03/10 12:20:40;;;;;;;17.95;11.45;;;16.30;80.00;;;;;;5016488;28;20176;-62
2022/03/10 12:23:06;;;;;;;24.55;12.68;;;16.30;79.50;;;;;;5016751;28;20172;-62
2022/03/10 12:26:06;;;;;;;16.23;11.77;;;16.30;76.30;;;;;;5016644;28;20168;-62
2022/03/10 12:28:37;;;;;;;16.70;11.18;;;16.40;73.00;;;;;;5016068;28;20195;-62
2022/03/10 12:31:05;;;;;;;16.45;11.15;;;16.20;70.40;;;;;;5016328;28;20307;-62
2022/03/10 12:33:32;;;;;;;17.58;12.18;;;16.20;71.30;;;;;;5016607;28;20265;-62
2022/03/10 12:35:59;;;;;;;17.17;12.25;;;16.30;68.80;;;;;;5016483;28;20176;-62
2022/03/10 12:38:39;;;;;;;14.80;11.48;;;16.30;69.70;;;;;;5016341;28;20238;-62
2022/03/10 12:41:05;;;;;;;18.05;11.88;;;16.20;74.20;;;;;;5016230;28;20191;-62